Time;durP1;ratioP1;P1;durP2;ratioP2;P2;SDS_P1;SDS_P2;PMS_P1;PMS_P2;Temp;Humidity;BMP_temperature;BMP_pressure;BME280_temperature;BME280_humidity;BME280_pressure;Samples;Min_cycle;Max_cycle;Signal;HPM_P1;HPM_P2
2023/08/05 00:01:40;;;;;;;0.00;0.00;;;;;;;13.20;nan;100437.94;6215942;23;20008;-75
2023/08/05 00:04:05;;;;;;;0.00;0.00;;;;;;;13.17;nan;100438.53;6217027;23;20012;-76
2023/08/05 00:06:33;;;;;;;0.00;0.00;;;;;;;13.12;nan;100424.00;6190234;23;20015;-76
2023/08/05 00:08:59;;;;;;;0.00;0.00;;;;;;;13.21;nan;100433.28;6167567;23;20012;-76
2023/08/05 00:11:24;;;;;;;0.00;0.00;;;;;;;13.11;nan;100431.38;6217077;23;20090;-77
2023/08/05 00:13:50;;;;;;;0.00;0.00;;;;;;;12.98;nan;100416.38;6191890;23;20055;-76
2023/08/05 00:16:22;;;;;;;0.00;0.00;;;;;;;12.95;nan;100408.69;6193202;23;20004;-77
2023/08/05 00:18:48;;;;;;;0.00;0.00;;;;;;;12.95;nan;100405.13;6219271;23;20004;-77
2023/08/05 00:21:13;;;;;;;0.00;0.00;;;;;;;12.83;nan;100380.78;6192006;23;20381;-75
2023/08/05 00:23:39;;;;;;;0.00;0.00;;;;;;;12.88;nan;100395.28;6193533;23;20303;-76
2023/08/05 00:26:06;;;;;;;0.00;0.00;;;;;;;12.69;nan;100367.66;6217692;23;20012;-74
2023/08/05 00:28:37;;;;;;;0.00;0.00;;;;;;;12.73;nan;100365.16;6217252;23;20012;-76
2023/08/05 00:31:07;;;;;;;0.00;0.00;;;;;;;12.83;nan;100375.28;6192056;23;19996;-75
2023/08/05 00:33:33;;;;;;;0.00;0.00;;;;;;;12.89;nan;100368.66;6190794;23;20015;-76
2023/08/05 00:36:00;;;;;;;0.00;0.00;;;;;;;12.88;nan;100361.53;6241977;23;20004;-74
2023/08/05 00:38:26;;;;;;;0.00;0.00;;;;;;;12.88;nan;100356.06;6192456;23;20008;-75
2023/08/05 00:40:54;;;;;;;0.00;0.00;;;;;;;12.91;nan;100352.75;6166717;23;20111;-76
2023/08/05 00:43:19;;;;;;;0.00;0.00;;;;;;;12.88;nan;100340.41;6167843;23;20012;-75
2023/08/05 00:45:50;;;;;;;0.00;0.00;;;;;;;12.85;nan;100323.66;6166706;23;20320;-75
2023/08/05 00:48:16;;;;;;;0.00;0.00;;;;;;;12.87;nan;100324.22;6243372;23;19996;-75
2023/08/05 00:50:42;;;;;;;0.00;0.00;;;;;;;12.87;nan;100318.72;6191979;23;20030;-75
2023/08/05 00:53:07;;;;;;;0.00;0.00;;;;;;;12.92;nan;100326.91;6216996;23;20004;-76
2023/08/05 00:55:33;;;;;;;0.00;0.00;;;;;;;12.93;nan;100329.38;6190644;23;20012;-75
2023/08/05 00:57:59;;;;;;;0.00;0.00;;;;;;;12.92;nan;100321.44;6216372;23;20011;-75
2023/08/05 01:00:24;;;;;;;0.00;0.00;;;;;;;12.91;nan;100317.06;6215705;23;20008;-75
2023/08/05 01:02:50;;;;;;;0.00;0.00;;;;;;;12.90;nan;100316.22;6191224;23;20424;-75
2023/08/05 01:05:16;;;;;;;0.00;0.00;;;;;;;12.91;nan;100308.84;6192462;23;20011;-75
2023/08/05 01:07:45;;;;;;;0.00;0.00;;;;;;;12.83;nan;100287.47;6167060;23;20012;-75
2023/08/05 01:10:11;;;;;;;0.00;0.00;;;;;;;12.82;nan;100280.34;6217710;23;20000;-75
2023/08/05 01:12:37;;;;;;;0.00;0.00;;;;;;;12.79;nan;100262.53;6217060;23;20124;-75
2023/08/05 01:15:02;;;;;;;0.00;0.00;;;;;;;12.70;nan;100251.34;6167948;23;20419;-76
2023/08/05 01:17:28;;;;;;;0.00;0.00;;;;;;;12.82;nan;100269.34;6214264;23;20008;-76
2023/08/05 01:20:01;;;;;;;0.00;0.00;;;;;;;12.70;nan;100262.31;6190633;23;20415;-76
2023/08/05 01:22:41;;;;;;;0.00;0.00;;;;;;;12.78;nan;100271.06;6216892;23;20087;-75
2023/08/05 01:25:23;;;;;;;0.00;0.00;;;;;;;12.86;nan;100278.66;6242394;23;20007;-76
2023/08/05 01:27:53;;;;;;;0.00;0.00;;;;;;;12.79;nan;100264.44;6243312;23;20004;-76
2023/08/05 01:30:20;;;;;;;0.00;0.00;;;;;;;12.74;nan;100244.16;6214249;23;20004;-75
2023/08/05 01:32:46;;;;;;;0.00;0.00;;;;;;;12.72;nan;100249.13;6244115;23;20004;-76
2023/08/05 01:35:12;;;;;;;0.00;0.00;;;;;;;12.78;nan;100257.34;6242541;23;20319;-76
2023/08/05 01:37:40;;;;;;;0.00;0.00;;;;;;;12.73;nan;100256.25;6243276;23;20005;-75
2023/08/05 01:40:06;;;;;;;0.03;0.03;;;;;;;12.77;nan;100255.69;6192032;23;20008;-76
2023/08/05 01:42:42;;;;;;;;;;;;;;;;;;;;;
2023/08/05 01:45:10;;;;;;;0.00;0.00;;;;;;;12.79;nan;100229.63;6218281;23;20875;-78
2023/08/05 01:47:37;;;;;;;0.00;0.00;;;;;;;12.68;nan;100217.88;6204355;23;20344;-76
2023/08/05 01:50:09;;;;;;;0.00;0.00;;;;;;;12.75;nan;100226.59;6211162;23;20084;-76
2023/08/05 01:52:36;;;;;;;0.00;0.00;;;;;;;12.70;nan;100218.44;6210995;23;20031;-76
2023/08/05 01:55:02;;;;;;;0.00;0.00;;;;;;;12.74;nan;100226.88;6213223;23;20030;-76
2023/08/05 01:57:30;;;;;;;0.00;0.00;;;;;;;12.61;nan;100209.16;6213055;23;20028;-76
2023/08/05 01:59:55;;;;;;;0.00;0.00;;;;;;;12.61;nan;100213.81;6213059;23;20004;-77
2023/08/05 02:02:21;;;;;;;0.00;0.00;;;;;;;12.69;nan;100213.22;6212094;23;20004;-77
2023/08/05 02:04:46;;;;;;;0.00;0.00;;;;;;;12.71;nan;100219.22;6211094;23;20015;-76
2023/08/05 02:07:12;;;;;;;0.00;0.00;;;;;;;12.62;nan;100205.31;6210009;23;20005;-75
2023/08/05 02:09:37;;;;;;;0.00;0.00;;;;;;;12.62;nan;100204.50;6185843;23;20008;-75
2023/08/05 02:12:25;;;;;;;0.00;0.00;;;;;;;12.55;nan;100193.84;6184581;23;20001;-76
2023/08/05 02:14:51;;;;;;;0.00;0.00;;;;;;;12.58;nan;100185.03;6211748;23;20014;-76
2023/08/05 02:17:16;;;;;;;0.00;0.00;;;;;;;12.63;nan;100179.53;6211148;23;20749;-77
2023/08/05 02:19:42;;;;;;;0.00;0.00;;;;;;;12.66;nan;100178.09;6185556;23;20004;-75
2023/08/05 02:22:07;;;;;;;0.00;0.00;;;;;;;12.68;nan;100182.22;6210855;23;20008;-75
2023/08/05 02:24:32;;;;;;;0.00;0.00;;;;;;;12.65;nan;100171.81;6209697;23;20005;-75
2023/08/05 02:26:58;;;;;;;0.00;0.00;;;;;;;12.69;nan;100172.06;6186131;23;20040;-75
2023/08/05 02:29:23;;;;;;;0.00;0.00;;;;;;;12.73;nan;100173.94;6158872;23;20336;-74
2023/08/05 02:31:49;;;;;;;0.00;0.00;;;;;;;12.73;nan;100168.47;6185027;23;20024;-75
2023/08/05 02:34:14;;;;;;;0.00;0.00;;;;;;;12.74;nan;100170.09;6184644;23;20019;-75
2023/08/05 02:36:42;;;;;;;0.00;0.00;;;;;;;12.72;nan;100147.63;6183399;23;20040;-75
2023/08/05 02:39:12;;;;;;;0.00;0.00;;;;;;;12.67;nan;100136.66;6212204;23;20008;-75
2023/08/05 02:41:48;;;;;;;;;;;;;;;;;;;;;
2023/08/05 02:44:14;;;;;;;0.00;0.00;;;;;;;12.72;nan;100127.59;6211821;23;20112;-75
2023/08/05 02:46:40;;;;;;;0.00;0.00;;;;;;;12.70;nan;100119.66;6209456;23;20028;-75
2023/08/05 02:49:08;;;;;;;0.00;0.00;;;;;;;12.74;nan;100126.19;6161866;23;20095;-76
2023/08/05 02:51:36;;;;;;;0.00;0.00;;;;;;;12.74;nan;100115.22;6210518;23;20309;-75
2023/08/05 02:54:05;;;;;;;0.00;0.00;;;;;;;12.75;nan;100105.88;6185150;23;20048;-76
2023/08/05 02:56:38;;;;;;;0.00;0.00;;;;;;;12.69;nan;100089.78;6185687;23;20317;-75
2023/08/05 02:59:03;;;;;;;0.00;0.00;;;;;;;12.75;nan;100099.59;6211201;23;20004;-75
2023/08/05 03:01:46;;;;;;;;;;;;;;;;;;;;;
2023/08/05 03:04:12;;;;;;;0.00;0.00;;;;;;;12.61;nan;100061.03;6211449;23;20506;-76
2023/08/05 03:06:38;;;;;;;0.00;0.00;;;;;;;12.64;nan;100065.91;6209119;23;20095;-76
2023/08/05 03:09:03;;;;;;;0.00;0.00;;;;;;;12.68;nan;100067.00;6211665;23;20009;-75
2023/08/05 03:11:31;;;;;;;0.00;0.00;;;;;;;12.69;nan;100057.66;6184652;23;20388;-76
2023/08/05 03:14:00;;;;;;;0.00;0.00;;;;;;;12.70;nan;100053.81;6161158;23;20031;-76
2023/08/05 03:16:25;;;;;;;0.00;0.00;;;;;;;12.67;nan;100042.59;6211710;23;20076;-75
2023/08/05 03:18:51;;;;;;;0.00;0.00;;;;;;;12.74;nan;100048.56;6184346;23;20080;-75
2023/08/05 03:21:16;;;;;;;0.00;0.00;;;;;;;12.74;nan;100043.88;6209755;23;20419;-76
2023/08/05 03:23:42;;;;;;;0.00;0.00;;;;;;;12.77;nan;100052.66;6215872;23;20004;-75
2023/08/05 03:26:13;;;;;;;0.00;0.00;;;;;;;12.77;nan;100036.19;6211811;23;20010;-76
2023/08/05 03:28:38;;;;;;;0.00;0.00;;;;;;;12.60;nan;100015.50;6189663;23;20008;-75
2023/08/05 03:31:07;;;;;;;0.00;0.00;;;;;;;12.63;nan;100014.94;6216488;23;20007;-75
2023/08/05 03:33:32;;;;;;;0.00;0.00;;;;;;;12.57;nan;99996.88;6214774;23;20103;-75
2023/08/05 03:35:58;;;;;;;0.00;0.00;;;;;;;12.65;nan;100017.38;6214359;23;20439;-75
2023/08/05 03:38:23;;;;;;;0.00;0.00;;;;;;;12.62;nan;100013.28;6190626;23;20386;-76
2023/08/05 03:40:57;;;;;;;0.00;0.00;;;;;;;12.55;nan;100001.84;6188731;23;20536;-76
2023/08/05 03:43:25;;;;;;;0.00;0.00;;;;;;;12.51;nan;99989.81;6192345;23;20077;-76
2023/08/05 03:45:51;;;;;;;0.00;0.00;;;;;;;12.44;nan;99984.69;6189144;23;20096;-74
2023/08/05 03:48:19;;;;;;;0.00;0.00;;;;;;;12.47;nan;99994.22;6215228;23;20079;-75
2023/08/05 03:50:44;;;;;;;0.00;0.00;;;;;;;12.52;nan;99992.25;6189392;23;20004;-74
2023/08/05 03:53:09;;;;;;;0.00;0.00;;;;;;;12.49;nan;99987.34;6165798;23;20457;-75
2023/08/05 03:55:35;;;;;;;0.00;0.00;;;;;;;12.41;nan;99968.78;6213547;23;20697;-75
2023/08/05 03:58:00;;;;;;;0.00;0.00;;;;;;;12.47;nan;99977.78;6240368;23;20423;-76
2023/08/05 04:00:26;;;;;;;0.00;0.00;;;;;;;12.49;nan;99986.56;6190067;23;20051;-75
2023/08/05 04:02:51;;;;;;;0.00;0.00;;;;;;;12.50;nan;99978.03;6190095;23;20000;-76
2023/08/05 04:05:17;;;;;;;0.00;0.00;;;;;;;12.53;nan;99971.16;6241644;23;20011;-75
2023/08/05 04:07:42;;;;;;;0.00;0.00;;;;;;;12.52;nan;99972.25;6215288;23;20334;-75
2023/08/05 04:10:08;;;;;;;0.00;0.00;;;;;;;12.50;nan;99950.59;6189231;23;20039;-75
2023/08/05 04:12:36;;;;;;;0.00;0.00;;;;;;;12.55;nan;99950.53;6190461;23;20090;-74
2023/08/05 04:15:02;;;;;;;0.00;0.00;;;;;;;12.54;nan;99917.91;6214455;23;20019;-74
2023/08/05 04:17:28;;;;;;;0.00;0.00;;;;;;;12.54;nan;99920.66;6217033;23;20423;-76
2023/08/05 04:19:53;;;;;;;0.00;0.00;;;;;;;12.59;nan;99931.59;6241864;23;20008;-76
2023/08/05 04:22:20;;;;;;;0.00;0.00;;;;;;;12.60;nan;99926.91;6164335;23;20022;-76
2023/08/05 04:24:48;;;;;;;0.00;0.00;;;;;;;12.53;nan;99910.81;6190484;23;20028;-77
2023/08/05 04:27:14;;;;;;;0.00;0.00;;;;;;;12.53;nan;99899.84;6214707;23;20082;-77
2023/08/05 04:29:42;;;;;;;0.00;0.00;;;;;;;12.46;nan;99869.22;6214919;23;20016;-76
2023/08/05 04:32:07;;;;;;;0.00;0.00;;;;;;;12.54;nan;99885.00;6243275;23;20001;-78
2023/08/05 04:34:40;;;;;;;0.00;0.00;;;;;;;12.46;nan;99871.97;6215918;23;20008;-78
2023/08/05 04:37:16;;;;;;;0.00;0.00;;;;;;;12.50;nan;99886.69;6189702;23;20008;-78
2023/08/05 04:39:42;;;;;;;0.00;0.00;;;;;;;12.45;nan;99875.81;6213939;23;20004;-78
2023/08/05 04:42:08;;;;;;;0.00;0.00;;;;;;;12.34;nan;99848.50;6191120;23;20011;-78
2023/08/05 04:44:46;;;;;;;0.00;0.00;;;;;;;12.37;nan;99847.91;6215484;23;20083;-77
2023/08/05 04:47:14;;;;;;;0.00;0.00;;;;;;;12.30;nan;99841.97;6243529;22;20078;-78
2023/08/05 04:49:42;;;;;;;0.00;0.00;;;;;;;12.29;nan;99825.81;6240437;23;20087;-78
2023/08/05 04:52:08;;;;;;;0.00;0.00;;;;;;;12.29;nan;99812.91;6213631;23;20067;-77
2023/08/05 04:54:44;;;;;;;0.00;0.00;;;;;;;12.31;nan;99805.22;6216006;23;20007;-78
2023/08/05 04:57:12;;;;;;;0.00;0.00;;;;;;;12.32;nan;99790.38;6217618;23;20000;-77
2023/08/05 04:59:37;;;;;;;0.00;0.00;;;;;;;12.29;nan;99777.28;6218247;23;20000;-76
2023/08/05 05:02:04;;;;;;;0.00;0.00;;;;;;;12.42;nan;99794.13;6192651;23;20723;-76
2023/08/05 05:04:32;;;;;;;0.00;0.00;;;;;;;12.30;nan;99778.91;6218446;23;20008;-78
2023/08/05 05:06:58;;;;;;;0.00;0.00;;;;;;;12.33;nan;99789.28;6217228;23;20027;-77
2023/08/05 05:09:26;;;;;;;0.00;0.00;;;;;;;12.12;nan;99763.22;6217868;23;20423;-77
2023/08/05 05:11:53;;;;;;;0.00;0.00;;;;;;;12.07;nan;99757.81;6216967;23;19996;-77
2023/08/05 05:14:21;;;;;;;0.00;0.00;;;;;;;12.15;nan;99765.38;6218219;23;20070;-77
2023/08/05 05:16:47;;;;;;;0.00;0.00;;;;;;;12.00;nan;99745.28;6167364;23;20008;-77
2023/08/05 05:19:14;;;;;;;0.00;0.00;;;;;;;11.95;nan;99737.13;6217974;23;20008;-77
2023/08/05 05:21:42;;;;;;;0.00;0.00;;;;;;;12.07;nan;99752.34;6192028;23;20443;-76
2023/08/05 05:24:07;;;;;;;0.00;0.00;;;;;;;11.91;nan;99729.75;6217911;23;20015;-77
2023/08/05 05:26:51;;;;;;;0.00;0.00;;;;;;;11.90;nan;99720.72;6217464;23;20004;-77
2023/08/05 05:29:19;;;;;;;0.00;0.00;;;;;;;11.97;nan;99729.44;6192590;23;20420;-77
2023/08/05 05:31:52;;;;;;;0.00;0.00;;;;;;;11.82;nan;99704.91;6196214;23;20011;-77
2023/08/05 05:34:18;;;;;;;0.00;0.00;;;;;;;11.87;nan;99707.59;6217577;23;20004;-77
2023/08/05 05:36:43;;;;;;;0.00;0.00;;;;;;;11.83;nan;99698.34;6218053;23;20004;-75
2023/08/05 05:39:09;;;;;;;0.00;0.00;;;;;;;11.88;nan;99703.75;6216484;23;20015;-74
2023/08/05 05:41:34;;;;;;;0.00;0.00;;;;;;;11.85;nan;99710.63;6216681;23;20531;-74
2023/08/05 05:43:59;;;;;;;0.00;0.00;;;;;;;11.79;nan;99694.56;6191655;23;20023;-74
2023/08/05 05:46:27;;;;;;;0.00;0.00;;;;;;;11.71;nan;99679.59;6191608;23;20020;-74
2023/08/05 05:49:03;;;;;;;0.00;0.00;;;;;;;11.73;nan;99673.81;6215570;23;20098;-75
2023/08/05 05:51:28;;;;;;;0.00;0.00;;;;;;;11.85;nan;99668.72;6168949;23;20601;-74
2023/08/05 05:53:55;;;;;;;0.00;0.00;;;;;;;11.84;nan;99669.81;6190960;23;20012;-75
2023/08/05 05:56:21;;;;;;;0.00;0.00;;;;;;;11.87;nan;99661.00;6166357;23;20012;-73
2023/08/05 05:58:46;;;;;;;0.00;0.00;;;;;;;11.93;nan;99659.91;6216235;23;20024;-75
2023/08/05 06:01:13;;;;;;;0.00;0.00;;;;;;;12.01;nan;99664.69;6215772;23;20099;-73
2023/08/05 06:03:39;;;;;;;0.03;0.03;;;;;;;12.05;nan;99649.31;6217174;23;20335;-73
2023/08/05 06:06:04;;;;;;;0.00;0.00;;;;;;;12.07;nan;99639.97;6166964;23;20087;-74
2023/08/05 06:08:34;;;;;;;0.00;0.00;;;;;;;12.02;nan;99633.47;6188700;23;20670;-74
2023/08/05 06:11:03;;;;;;;0.00;0.00;;;;;;;12.00;nan;99630.22;6191046;23;20003;-75
2023/08/05 06:13:29;;;;;;;0.00;0.00;;;;;;;11.91;nan;99607.28;6215300;23;20032;-74
2023/08/05 06:15:55;;;;;;;0.00;0.00;;;;;;;11.91;nan;99598.25;6191421;23;20004;-74
2023/08/05 06:18:20;;;;;;;0.00;0.00;;;;;;;11.84;nan;99573.94;6189779;23;20015;-74
2023/08/05 06:20:49;;;;;;;0.00;0.00;;;;;;;11.83;nan;99567.66;6215387;23;20030;-75
2023/08/05 06:23:15;;;;;;;0.00;0.00;;;;;;;11.86;nan;99558.03;6213661;23;20054;-74
2023/08/05 06:25:42;;;;;;;0.00;0.00;;;;;;;11.83;nan;99537.53;6216431;23;20004;-75
2023/08/05 06:28:08;;;;;;;0.00;0.00;;;;;;;11.84;nan;99527.38;6188201;23;20019;-76
2023/08/05 06:30:34;;;;;;;0.00;0.00;;;;;;;11.83;nan;99503.84;6166684;23;20004;-74
2023/08/05 06:33:00;;;;;;;0.00;0.00;;;;;;;11.79;nan;99483.63;6165894;23;20066;-74
2023/08/05 06:35:25;;;;;;;0.00;0.00;;;;;;;11.82;nan;99475.63;6166502;23;20008;-74
2023/08/05 06:37:51;;;;;;;0.00;0.00;;;;;;;11.88;nan;99468.16;6242640;23;20453;-75
2023/08/05 06:40:16;;;;;;;0.00;0.00;;;;;;;11.87;nan;99461.88;6167471;23;20378;-75
2023/08/05 06:42:42;;;;;;;0.00;0.00;;;;;;;11.76;nan;99437.69;6191186;23;20007;-75
2023/08/05 06:45:08;;;;;;;0.00;0.00;;;;;;;12.02;nan;99458.09;6216451;23;20044;-74
2023/08/05 06:47:35;;;;;;;0.00;0.00;;;;;;;11.92;nan;99430.84;6190883;23;20324;-75
2023/08/05 06:50:03;;;;;;;0.00;0.00;;;;;;;11.94;nan;99409.44;6190643;23;20015;-75
2023/08/05 06:52:29;;;;;;;0.00;0.00;;;;;;;11.95;nan;99413.81;6190580;23;20032;-75
2023/08/05 06:55:00;;;;;;;0.00;0.00;;;;;;;12.09;nan;99421.25;6190784;23;20012;-76
2023/08/05 06:57:29;;;;;;;0.00;0.00;;;;;;;12.15;nan;99418.16;6216188;23;20007;-77
2023/08/05 06:59:58;;;;;;;0.00;0.00;;;;;;;12.25;nan;99410.84;6189414;23;20019;-76
2023/08/05 07:02:25;;;;;;;0.00;0.00;;;;;;;12.32;nan;99398.38;6216848;23;20008;-77
2023/08/05 07:04:51;;;;;;;0.00;0.00;;;;;;;12.52;nan;99404.59;6242370;23;20010;-76
2023/08/05 07:08:01;;;;;;;0.00;0.00;;;;;;;12.49;nan;99377.78;6242226;23;20685;-75
2023/08/05 07:10:29;;;;;;;0.00;0.00;;;;;;;12.53;nan;99406.22;6232060;23;20011;-77
2023/08/05 07:20:50;;;;;;;;;;;;;;;;;;;;;
2023/08/05 07:23:16;;;;;;;0.00;0.00;;;;;;;12.56;nan;99307.69;6005044;23;20087;-75
2023/08/05 07:32:49;;;;;;;0.00;0.00;;;;;;;12.69;nan;99306.06;6032962;23;20824;-77
2023/08/05 07:35:37;;;;;;;0.00;0.00;;;;;;;12.78;nan;99325.34;6116753;23;20007;-76
2023/08/05 07:38:09;;;;;;;0.00;0.00;;;;;;;12.78;nan;99308.09;6148513;23;20447;-74
2023/08/05 07:40:55;;;;;;;0.00;0.00;;;;;;;13.00;nan;99316.34;6142586;23;20008;-77
2023/08/05 07:43:32;;;;;;;0.00;0.00;;;;;;;13.09;nan;99314.47;6145774;23;20095;-76
2023/08/05 07:45:59;;;;;;;0.00;0.00;;;;;;;12.96;nan;99278.88;6150385;23;20143;-78
2023/08/05 07:48:35;;;;;;;;;;;;;;;;;;;;;
2023/08/05 07:51:12;;;;;;;0.00;0.00;;;;;;;13.17;nan;99312.94;6176350;23;20108;-76
2023/08/05 07:53:39;;;;;;;0.00;0.00;;;;;;;13.10;nan;99294.16;6154595;23;20479;-77
2023/08/05 07:56:35;;;;;;;0.00;0.00;;;;;;;13.24;nan;99299.59;6154659;23;20009;-77
2023/08/05 07:59:12;;;;;;;0.00;0.00;;;;;;;13.12;nan;99263.66;6179789;23;20013;-77
2023/08/05 08:01:42;;;;;;;0.00;0.00;;;;;;;13.03;nan;99238.88;6179508;23;20025;-77
2023/08/05 08:04:18;;;;;;;0.00;0.00;;;;;;;13.19;nan;99238.53;6154562;23;20001;-78
2023/08/05 08:06:47;;;;;;;0.00;0.00;;;;;;;13.27;nan;99226.78;6159043;23;20009;-77
2023/08/05 08:09:13;;;;;;;0.00;0.00;;;;;;;13.56;nan;99244.75;6216555;23;20087;-77
2023/08/05 08:11:41;;;;;;;0.00;0.00;;;;;;;13.29;nan;99199.84;6215776;23;20079;-78
2023/08/05 08:14:17;;;;;;;0.00;0.00;;;;;;;13.41;nan;99202.81;6216392;23;20027;-78
2023/08/05 08:16:43;;;;;;;0.00;0.00;;;;;;;13.55;nan;99202.75;6214838;23;20008;-77
2023/08/05 08:19:10;;;;;;;0.00;0.00;;;;;;;13.47;nan;99191.72;6215736;23;20027;-78
2023/08/05 08:21:43;;;;;;;0.00;0.00;;;;;;;13.47;nan;99184.28;6214316;23;20071;-76
2023/08/05 08:24:18;;;;;;;0.00;0.00;;;;;;;13.36;nan;99150.81;6243222;23;20443;-77
2023/08/05 08:26:53;;;;;;;0.00;0.00;;;;;;;13.77;nan;99201.88;6215891;23;19996;-78
2023/08/05 08:29:18;;;;;;;0.00;0.00;;;;;;;13.70;nan;99162.25;6215303;23;20075;-78
2023/08/05 08:31:44;;;;;;;0.00;0.00;;;;;;;13.86;nan;99170.88;6214572;23;20453;-77
2023/08/05 08:34:50;;;;;;;0.00;0.00;;;;;;;13.85;nan;99152.78;6216748;23;20008;-77
2023/08/05 08:37:15;;;;;;;0.00;0.00;;;;;;;14.00;nan;99138.56;6244333;23;20015;-78
2023/08/05 08:39:40;;;;;;;0.00;0.00;;;;;;;14.12;nan;99129.72;6243637;23;20004;-77
2023/08/05 08:42:19;;;;;;;0.00;0.00;;;;;;;14.26;nan;99146.06;6216515;23;20325;-77
2023/08/05 08:44:48;;;;;;;0.00;0.00;;;;;;;14.41;nan;99136.50;6217229;23;20004;-77
2023/08/05 08:47:15;;;;;;;0.00;0.00;;;;;;;14.46;nan;99139.13;6217573;23;20075;-78
2023/08/05 08:49:41;;;;;;;0.00;0.00;;;;;;;14.55;nan;99148.16;6217092;23;20000;-77
2023/08/05 08:52:08;;;;;;;0.00;0.00;;;;;;;14.72;nan;99116.31;6216690;23;19996;-78
2023/08/05 08:54:37;;;;;;;0.00;0.00;;;;;;;15.09;nan;99116.72;6215466;23;20004;-78
2023/08/05 08:57:13;;;;;;;0.00;0.00;;;;;;;15.19;nan;99100.66;6216066;23;20000;-79
2023/08/05 08:59:47;;;;;;;0.00;0.00;;;;;;;15.39;nan;99098.34;6216338;23;20008;-80
2023/08/05 09:02:31;;;;;;;0.00;0.00;;;;;;;15.62;nan;99106.31;6216771;23;20024;-79
2023/08/05 09:05:08;;;;;;;0.00;0.00;;;;;;;15.58;nan;99088.81;6217316;23;20083;-80
2023/08/05 09:07:37;;;;;;;0.00;0.00;;;;;;;15.60;nan;99097.59;6217484;23;20256;-79
2023/08/05 09:10:31;;;;;;;0.00;0.00;;;;;;;15.44;nan;99065.06;6191964;23;20008;-79
2023/08/05 09:13:10;;;;;;;0.00;0.00;;;;;;;15.72;nan;99105.94;6216166;23;19996;-79
2023/08/05 09:15:42;;;;;;;0.00;0.00;;;;;;;15.62;nan;99078.75;6217822;23;20004;-80
2023/08/05 09:18:08;;;;;;;0.00;0.00;;;;;;;15.56;nan;99080.91;6239696;23;20008;-79
2023/08/05 09:20:44;;;;;;;0.00;0.00;;;;;;;15.39;nan;99062.53;6190274;23;20058;-78
2023/08/05 09:23:11;;;;;;;0.00;0.00;;;;;;;15.43;nan;99032.34;6191662;23;20028;-79
2023/08/05 09:25:54;;;;;;;0.00;0.00;;;;;;;15.56;nan;99003.75;6216544;23;20690;-79
2023/08/05 09:28:31;;;;;;;0.00;0.00;;;;;;;15.90;nan;99046.00;6211141;23;20015;-79
2023/08/05 09:31:16;;;;;;;0.00;0.00;;;;;;;15.72;nan;99001.22;6213523;23;20008;-78
2023/08/05 09:33:49;;;;;;;0.00;0.00;;;;;;;15.83;nan;99024.50;6241229;23;20550;-77
2023/08/05 09:36:32;;;;;;;0.00;0.00;;;;;;;15.91;nan;99003.53;6241389;23;20015;-79
2023/08/05 09:39:06;;;;;;;0.00;0.00;;;;;;;16.39;nan;99012.38;6214637;23;20014;-78
2023/08/05 09:41:40;;;;;;;;;;;;;;;16.75;nan;99021.91;6217689;23;20283;-77
2023/08/05 09:44:27;;;;;;;0.00;0.00;;;;;;;16.74;nan;99023.06;6193199;23;19915;-79
2023/08/05 09:47:21;;;;;;;0.00;0.00;;;;;;;16.22;nan;98997.59;6190088;23;20020;-78
2023/08/05 09:49:55;;;;;;;0.00;0.00;;;;;;;16.26;nan;99007.97;6216459;23;20067;-78
2023/08/05 09:52:23;;;;;;;0.00;0.00;;;;;;;16.38;nan;99027.31;6191193;23;20449;-79
2023/08/05 09:55:05;;;;;;;0.00;0.00;;;;;;;16.52;nan;99027.81;6242216;23;20130;-78
2023/08/05 09:57:31;;;;;;;0.00;0.00;;;;;;;16.70;nan;99016.59;6215659;23;20007;-79
2023/08/05 09:59:58;;;;;;;0.00;0.00;;;;;;;16.57;nan;98997.25;6243922;23;20004;-78
2023/08/05 10:02:27;;;;;;;0.00;0.00;;;;;;;16.68;nan;99003.13;6188706;23;20011;-80
2023/08/05 10:04:53;;;;;;;0.00;0.00;;;;;;;17.08;nan;98994.28;6190519;23;20015;-77
2023/08/05 10:07:25;;;;;;;0.00;0.00;;;;;;;17.97;nan;98978.03;6244521;23;20000;-81
2023/08/05 10:10:19;;;;;;;0.00;0.00;;;;;;;18.24;nan;98976.44;6194330;23;20007;-77
2023/08/05 10:13:17;;;;;;;0.10;0.10;;;;;;;18.37;nan;98979.94;6216036;23;20059;-78
2023/08/05 10:15:47;;;;;;;0.00;0.00;;;;;;;18.57;nan;98967.03;6244002;23;20015;-79
2023/08/05 10:18:18;;;;;;;0.00;0.00;;;;;;;18.76;nan;98960.00;6215779;23;20074;-77
2023/08/05 10:20:50;;;;;;;0.00;0.00;;;;;;;20.37;nan;98987.81;6244245;23;20059;-78
2023/08/05 10:23:16;;;;;;;0.00;0.00;;;;;;;23.34;nan;98965.53;6217651;23;20469;-80
2023/08/05 10:25:53;;;;;;;0.00;0.00;;;;;;;25.22;nan;98983.75;6216397;23;20008;-77
2023/08/05 10:28:25;;;;;;;0.00;0.00;;;;;;;24.26;nan;98980.38;6218585;23;20000;-79
2023/08/05 10:30:53;;;;;;;0.00;0.00;;;;;;;22.95;nan;98969.56;6217426;23;20008;-82
2023/08/05 10:33:19;;;;;;;0.00;0.00;;;;;;;22.04;nan;98974.59;6193859;23;20012;-76
2023/08/05 10:35:48;;;;;;;0.00;0.00;;;;;;;21.09;nan;98947.41;6242686;23;20012;-79
2023/08/05 10:38:15;;;;;;;0.00;0.00;;;;;;;20.46;nan;98976.47;6215811;23;20039;-77
2023/08/05 10:40:45;;;;;;;0.00;0.00;;;;;;;19.79;nan;98963.63;6216624;23;20023;-77
2023/08/05 10:43:27;;;;;;;0.00;0.00;;;;;;;19.53;nan;98947.59;6216950;23;20308;-80
2023/08/05 10:45:53;;;;;;;0.00;0.00;;;;;;;19.79;nan;98965.63;6243781;22;20007;-77
2023/08/05 10:48:19;;;;;;;0.00;0.00;;;;;;;19.85;nan;98972.47;6190986;23;20023;-77
2023/08/05 10:50:48;;;;;;;0.00;0.00;;;;;;;19.96;nan;98965.19;6216181;23;20008;-77
2023/08/05 10:53:13;;;;;;;0.00;0.00;;;;;;;20.12;nan;98958.75;6215600;23;20016;-77
2023/08/05 10:55:57;;;;;;;0.00;0.00;;;;;;;20.46;nan;98950.66;6191216;23;20028;-85
2023/08/05 10:58:31;;;;;;;0.00;0.00;;;;;;;20.17;nan;98944.59;6215730;23;20015;-78
2023/08/05 11:01:16;;;;;;;0.00;0.00;;;;;;;19.79;nan;98940.66;6239607;23;20010;-80
2023/08/05 11:03:47;;;;;;;0.00;0.00;;;;;;;19.41;nan;98931.09;6191743;23;20011;-78
2023/08/05 11:06:22;;;;;;;0.00;0.00;;;;;;;18.94;nan;98919.72;6214862;23;20026;-77
2023/08/05 11:08:47;;;;;;;0.00;0.00;;;;;;;18.71;nan;98922.31;6214373;23;20011;-77
2023/08/05 11:11:14;;;;;;;0.00;0.00;;;;;;;18.64;nan;98917.38;6243432;23;20308;-76
2023/08/05 11:13:41;;;;;;;0.00;0.00;;;;;;;18.74;nan;98915.25;6215636;23;20055;-77
2023/08/05 11:16:19;;;;;;;0.00;0.00;;;;;;;18.93;nan;98931.97;6190642;23;20007;-77
2023/08/05 11:22:16;;;;;;;0.00;0.00;;;;;;;17.77;nan;98903.19;6242640;23;20016;-76
2023/08/05 11:24:55;;;;;;;0.00;0.00;;;;;;;17.14;nan;98889.88;6216376;23;20062;-78
2023/08/05 11:27:31;;;;;;;0.00;0.00;;;;;;;16.84;nan;98906.66;6215637;23;20015;-75
2023/08/05 11:29:57;;;;;;;0.00;0.00;;;;;;;16.72;nan;98909.44;6212474;23;20316;-74
2023/08/05 11:32:22;;;;;;;0.00;0.00;;;;;;;17.24;nan;98896.88;6241528;22;20007;-77
2023/08/05 11:34:49;;;;;;;0.00;0.00;;;;;;;19.12;nan;98922.13;6213211;23;20099;-76
2023/08/05 11:37:14;;;;;;;0.00;0.00;;;;;;;19.70;nan;98916.66;6189975;23;20058;-76
2023/08/05 11:39:40;;;;;;;0.00;0.00;;;;;;;20.15;nan;98908.06;6189004;23;20040;-75
2023/08/05 11:42:06;;;;;;;0.00;0.00;;;;;;;23.07;nan;98907.16;6215232;23;20330;-76
2023/08/05 11:44:32;;;;;;;0.00;0.00;;;;;;;27.18;nan;98907.56;6164022;23;20015;-76
2023/08/05 11:47:08;;;;;;;0.00;0.00;;;;;;;28.41;nan;98894.06;6189786;23;20031;-75
2023/08/05 11:49:33;;;;;;;0.00;0.00;;;;;;;29.14;nan;98911.38;6216494;23;20000;-75
2023/08/05 11:51:58;;;;;;;0.00;0.00;;;;;;;27.65;nan;98881.81;6216309;23;20720;-75
2023/08/05 11:54:34;;;;;;;0.00;0.00;;;;;;;25.53;nan;98886.97;6191392;23;20008;-77
2023/08/05 11:57:19;;;;;;;0.00;0.00;;;;;;;24.83;nan;98873.50;6212054;23;20044;-78
2023/08/05 11:59:55;;;;;;;0.00;0.00;;;;;;;25.20;nan;98880.66;6201968;23;20055;-77
2023/08/05 12:02:21;;;;;;;0.00;0.00;;;;;;;24.58;nan;98890.25;6213846;23;20062;-77
2023/08/05 12:05:08;;;;;;;0.00;0.00;;;;;;;23.10;nan;98884.13;6212686;23;20004;-76
2023/08/05 12:07:41;;;;;;;0.00;0.00;;;;;;;21.74;nan;98889.16;6214344;23;20083;-76
2023/08/05 12:10:12;;;;;;;0.00;0.00;;;;;;;20.62;nan;98909.72;6217732;23;20008;-75
2023/08/05 12:12:41;;;;;;;0.00;0.00;;;;;;;19.60;nan;98892.28;6217098;23;20010;-75
2023/08/05 12:15:20;;;;;;;0.00;0.00;;;;;;;19.01;nan;98914.38;6192794;23;20012;-77
2023/08/05 12:17:52;;;;;;;0.00;0.00;;;;;;;18.46;nan;98910.59;6217584;23;20004;-77
2023/08/05 12:20:23;;;;;;;0.00;0.00;;;;;;;17.98;nan;98884.81;6216745;23;20031;-75
2023/08/05 12:22:50;;;;;;;0.00;0.00;;;;;;;18.09;nan;98881.19;6218146;22;20004;-75
2023/08/05 12:25:18;;;;;;;0.00;0.00;;;;;;;20.57;nan;98885.00;6212629;23;20004;-75